createdAt,value
2022-10-23T00:02:39.680Z,4.05
2022-10-23T00:07:42.793Z,3.10
2022-10-23T00:12:47.860Z,3.85
2022-10-23T00:17:50.900Z,3.53
2022-10-23T00:22:53.923Z,3.05
2022-10-23T00:27:58.221Z,3.38
2022-10-23T00:33:01.233Z,3.40
2022-10-23T00:38:04.285Z,3.95
2022-10-23T00:43:17.909Z,3.90
2022-10-23T00:48:21.360Z,2.72
2022-10-23T00:53:24.983Z,4.65
2022-10-23T00:58:29.388Z,3.05
2022-10-23T01:03:32.988Z,2.80
2022-10-23T01:08:43.423Z,3.08
2022-10-23T01:13:56.271Z,3.42
2022-10-23T01:19:04.610Z,3.55
2022-10-23T01:24:14.508Z,3.40
2022-10-23T01:29:25.276Z,3.05
2022-10-23T01:34:33.364Z,3.58
2022-10-23T01:39:41.238Z,3.53
2022-10-23T01:44:48.488Z,3.50
2022-10-23T01:49:53.486Z,3.60
2022-10-23T01:55:00.596Z,2.83
2022-10-23T02:00:08.890Z,3.63
2022-10-23T02:05:16.950Z,3.08
2022-10-23T02:10:20.879Z,3.78
2022-10-23T02:15:32.895Z,4.22
2022-10-23T02:20:40.970Z,3.70
2022-10-23T02:25:48.671Z,3.42
2022-10-23T02:30:54.816Z,2.60
2022-10-23T02:35:58.240Z,2.83
2022-10-23T02:41:13.735Z,2.60
2022-10-23T02:46:25.034Z,3.22
2022-10-23T02:51:34.969Z,2.70
2022-10-23T02:56:43.195Z,3.17
2022-10-23T03:01:52.893Z,2.88
2022-10-23T03:06:56.919Z,3.13
2022-10-23T03:11:59.869Z,5.00
2022-10-23T03:17:04.750Z,3.38
2022-10-23T03:22:07.748Z,2.80
2022-10-23T03:27:11.390Z,4.03
2022-10-23T03:32:15.792Z,2.85
2022-10-23T03:37:18.881Z,2.53
2022-10-23T03:42:21.842Z,3.53
2022-10-23T03:47:26.203Z,3.08
2022-10-23T03:52:29.242Z,2.70
2022-10-23T03:57:32.237Z,2.15
2022-10-23T04:02:36.612Z,3.35
2022-10-23T04:07:39.547Z,3.08
2022-10-23T04:12:42.831Z,3.65
2022-10-23T04:17:47.290Z,2.63
2022-10-23T04:22:50.230Z,2.30
2022-10-23T04:27:53.179Z,2.72
2022-10-23T04:32:57.526Z,2.58
2022-10-23T04:38:00.466Z,2.00
2022-10-23T04:43:03.529Z,2.50
2022-10-23T04:48:07.999Z,3.10
2022-10-23T04:53:11.240Z,2.58
2022-10-23T04:58:14.181Z,2.83
2022-10-23T05:03:19.050Z,2.78
2022-10-23T05:08:22.142Z,2.30
2022-10-23T05:13:25.102Z,2.05
2022-10-23T05:18:33.284Z,2.38
2022-10-23T05:23:39.185Z,1.75
2022-10-23T05:28:42.133Z,2.08
2022-10-23T05:33:46.483Z,2.38
2022-10-23T05:38:49.486Z,2.47
2022-10-23T05:43:52.386Z,3.22
2022-10-23T05:53:59.486Z,2.35
2022-10-23T05:59:02.475Z,2.42
2022-10-23T06:04:06.923Z,2.85
2022-10-23T06:09:09.879Z,3.78
2022-10-23T06:14:12.837Z,3.60
2022-10-23T06:19:17.226Z,5.03
2022-10-23T06:24:20.177Z,4.13
2022-10-23T06:29:23.372Z,4.20
2022-10-23T06:34:27.704Z,4.13
2022-10-23T06:39:32.168Z,2.45
2022-10-23T06:44:35.560Z,3.92
2022-10-23T06:49:39.874Z,2.50
2022-10-23T06:54:42.783Z,2.90
2022-10-23T06:59:45.739Z,3.17
2022-10-23T07:04:50.013Z,3.22
2022-10-23T07:09:53.002Z,2.92
2022-10-23T07:14:56.030Z,3.03
2022-10-23T07:20:00.331Z,2.22
2022-10-23T07:25:03.227Z,2.28
2022-10-23T07:30:07.062Z,3.35
2022-10-23T07:40:17.276Z,3.05
2022-10-23T07:45:20.213Z,2.47
2022-10-23T07:50:24.658Z,2.88
2022-10-23T07:55:27.673Z,3.33
2022-10-23T08:00:30.608Z,2.30
2022-10-23T08:05:34.944Z,2.67
2022-10-23T08:10:37.927Z,2.38
2022-10-23T08:15:41.218Z,2.15
2022-10-23T08:20:47.197Z,3.22
2022-10-23T08:25:50.134Z,3.33
2022-10-23T08:35:57.255Z,3.47
2022-10-23T08:41:01.554Z,2.75
2022-10-23T08:46:09.559Z,2.92
2022-10-23T08:51:19.899Z,4.32
2022-10-23T08:56:28.703Z,3.97
2022-10-23T09:01:38.697Z,3.75
2022-10-23T09:06:50.739Z,3.35
2022-10-23T09:11:59.965Z,3.60
2022-10-23T09:22:19.741Z,4.18
2022-10-23T09:27:22.979Z,4.82
2022-10-23T09:32:36.993Z,3.97
2022-10-23T09:37:48.466Z,4.32
2022-10-23T09:42:53.867Z,4.28
2022-10-23T09:48:14.986Z,4.95
2022-10-23T09:53:33.734Z,4.07
2022-10-23T09:58:39.682Z,3.35
2022-10-23T10:03:51.105Z,4.13
2022-10-23T10:08:59.053Z,3.92
2022-10-23T10:14:28.896Z,4.75
2022-10-23T10:19:45.089Z,4.15
2022-10-23T10:24:54.228Z,3.78
2022-10-23T10:30:06.109Z,3.40
2022-10-23T10:35:21.026Z,3.85
2022-10-23T10:40:31.344Z,3.63
2022-10-23T10:45:38.594Z,4.65
2022-10-23T10:50:47.682Z,4.75
2022-10-23T10:55:54.872Z,4.43
2022-10-23T11:01:02.113Z,3.63
2022-10-23T11:06:07.241Z,4.22
2022-10-23T11:11:17.687Z,3.08
2022-10-23T11:16:25.019Z,3.75
2022-10-23T11:21:36.212Z,3.20
2022-10-23T11:26:53.055Z,3.20
2022-10-23T11:32:11.030Z,3.50
2022-10-23T11:37:18.596Z,3.42
2022-10-23T11:42:34.175Z,3.35
2022-10-23T11:47:40.599Z,3.42
2022-10-23T11:53:12.802Z,3.10
2022-10-23T11:58:32.534Z,3.22
2022-10-23T12:03:49.761Z,2.95
2022-10-23T12:08:57.406Z,2.80
2022-10-23T12:14:01.811Z,3.13
2022-10-23T12:19:20.270Z,2.90
2022-10-23T12:24:42.584Z,3.08
2022-10-23T12:30:00.745Z,3.08
2022-10-23T12:35:19.463Z,2.45
2022-10-23T12:40:29.987Z,3.35
2022-10-23T12:45:39.788Z,3.28
2022-10-23T12:50:51.460Z,3.05
2022-10-23T13:01:08.602Z,3.58
2022-10-23T13:06:13.236Z,3.25
2022-10-23T13:11:19.042Z,3.15
2022-10-23T13:16:25.276Z,3.30
2022-10-23T13:21:29.880Z,2.63
2022-10-23T13:26:35.913Z,3.53
2022-10-23T13:31:40.219Z,3.63
2022-10-23T13:36:53.724Z,3.90
2022-10-23T13:41:57.964Z,2.95
2022-10-23T13:47:02.375Z,3.08
2022-10-23T13:52:05.546Z,3.55
2022-10-23T13:57:14.716Z,3.05
2022-10-23T14:02:22.156Z,3.75
2022-10-23T14:07:25.180Z,3.35
2022-10-23T14:12:28.408Z,2.95
2022-10-23T14:17:32.793Z,3.72
2022-10-23T14:22:35.965Z,3.30
2022-10-23T14:27:39.138Z,3.03
2022-10-23T14:32:44.151Z,3.58
2022-10-23T14:37:47.908Z,3.35
2022-10-23T14:42:51.267Z,3.83
2022-10-23T14:47:55.587Z,3.08
2022-10-23T14:52:58.597Z,3.45
2022-10-23T14:58:01.608Z,3.83
2022-10-23T15:03:06.045Z,3.15
2022-10-23T15:08:09.325Z,2.75
2022-10-23T15:13:12.307Z,3.22
2022-10-23T15:18:19.615Z,3.33
2022-10-23T15:23:22.586Z,2.80
2022-10-23T15:28:25.966Z,3.22
2022-10-23T15:33:30.567Z,2.85
2022-10-23T15:38:33.909Z,3.20
2022-10-23T15:43:36.855Z,2.50
2022-10-23T15:48:41.248Z,2.65
2022-10-23T15:53:44.271Z,3.28
2022-10-23T15:58:47.239Z,2.63
2022-10-23T16:03:51.621Z,3.10
2022-10-23T16:14:03.165Z,3.13
2022-10-23T16:19:07.497Z,2.63
2022-10-23T16:24:11.555Z,2.60
2022-10-23T16:29:14.531Z,2.20
2022-10-23T16:34:19.534Z,2.35
2022-10-23T16:39:22.605Z,3.05
2022-10-23T16:44:26.521Z,2.13
2022-10-23T16:49:32.177Z,2.30
2022-10-23T16:54:35.464Z,2.30
2022-10-23T16:59:38.457Z,2.42
2022-10-23T17:04:42.789Z,2.55
2022-10-23T17:09:46.703Z,1.95
2022-10-23T17:14:49.708Z,2.63
2022-10-23T17:19:54.009Z,2.50
2022-10-23T17:24:57.134Z,2.53
2022-10-23T17:30:00.104Z,2.03
2022-10-23T17:35:05.704Z,2.35
2022-10-23T17:40:09.429Z,1.92
2022-10-23T17:45:12.639Z,1.83
2022-10-23T17:50:17.354Z,2.10
2022-10-23T17:55:20.412Z,1.83
2022-10-23T18:00:23.487Z,1.65
2022-10-23T18:05:28.037Z,2.15
2022-10-23T18:10:31.034Z,2.35
2022-10-23T18:15:35.521Z,2.20
2022-10-23T18:20:42.944Z,1.90
2022-10-23T18:25:46.299Z,1.92
2022-10-23T18:30:53.275Z,1.85
2022-10-23T18:36:00.435Z,1.50
2022-10-23T18:41:03.360Z,2.63
2022-10-23T18:46:06.898Z,2.35
2022-10-23T18:51:16.817Z,1.88
2022-10-23T18:56:23.528Z,2.67
2022-10-23T19:01:28.187Z,2.67
2022-10-23T19:06:33.480Z,1.98
2022-10-23T19:11:36.971Z,1.80
2022-10-23T19:16:44.041Z,1.60
2022-10-23T19:21:49.869Z,1.10
2022-10-23T19:26:53.148Z,1.70
2022-10-23T19:31:56.345Z,1.20
2022-10-23T19:37:00.774Z,1.08
2022-10-23T19:42:03.758Z,1.70
2022-10-23T19:47:06.931Z,2.30
2022-10-23T19:52:11.415Z,2.25
2022-10-23T19:57:14.985Z,2.63
2022-10-23T20:02:19.787Z,2.85
2022-10-23T20:07:24.316Z,2.33
2022-10-23T20:12:27.314Z,2.30
2022-10-23T20:17:30.206Z,2.30
2022-10-23T20:22:34.592Z,2.33
2022-10-23T20:32:45.783Z,1.52
2022-10-23T20:37:50.601Z,1.80
2022-10-23T20:42:53.605Z,2.05
2022-10-23T20:47:56.529Z,2.58
2022-10-23T20:53:00.827Z,2.40
2022-10-23T20:58:03.777Z,2.30
2022-10-23T21:03:06.687Z,2.72
2022-10-23T21:08:11.029Z,2.00
2022-10-23T21:13:14.245Z,2.28
2022-10-23T21:18:27.488Z,1.80
2022-10-23T21:23:42.674Z,1.92
2022-10-23T21:28:55.693Z,2.15
2022-10-23T21:39:18.754Z,1.95
2022-10-23T21:44:21.734Z,1.33
2022-10-23T21:49:24.710Z,1.08
2022-10-23T21:54:29.029Z,2.17
2022-10-23T21:59:34.814Z,2.13
2022-10-23T22:04:38.920Z,1.67
2022-10-23T22:09:43.650Z,1.65
2022-10-23T22:14:46.817Z,1.60
2022-10-23T22:19:49.791Z,1.42
2022-10-23T22:24:54.178Z,1.80
2022-10-23T22:29:58.518Z,1.70
2022-10-23T22:35:01.483Z,1.55
2022-10-23T22:40:07.429Z,1.70
2022-10-23T22:45:11.112Z,1.73
2022-10-23T22:50:14.399Z,1.80
2022-10-23T22:55:18.854Z,1.77
2022-10-23T23:00:21.867Z,1.70
2022-10-23T23:05:24.855Z,1.65
2022-10-23T23:10:29.167Z,1.90
2022-10-23T23:15:32.134Z,1.60
2022-10-23T23:20:35.401Z,2.38
2022-10-23T23:25:43.437Z,1.80
2022-10-23T23:35:54.318Z,1.70
2022-10-23T23:40:58.603Z,2.15
2022-10-23T23:46:01.594Z,1.77
2022-10-23T23:51:04.556Z,2.15
2022-10-23T23:56:09.006Z,2.25
